Minot Air Force Base Minot US
ICAO: KMIB
IATA: MIB
Category: Medium
Scheduled Services: No

Elevation: 1667 ft
TransAlt. 18000 ft.

Airport Communications:
APP:119.6
ATIS:27.88
CLNC DEL:32.62
DEP:119.6
GND:134
PMSV METRO:34.25
COMD POST:32.1
PTD:37.22
TWR:120.65

KMIB Zoom In..

Runways:

(A) RW 11 length 13197 ft width 300 ft
ILS 109.90 / hdg 115

(B) RW 29 length 13197 ft width 300 ft
ILS 109.90 / hdg 295

Location; KMIB
Day. 26 / Time. 12.56 Zulu
* Altimeter: 29.73
* Temperature: 20° c. 68°f.
* Wind from: 300° Speed 05 kn.
Dewpoint: 12° c.
Visibility: 10 Statute Miles.
Clouds: Clear (automated report).

KMIB 261256Z AUTO 30005KT 10SM CLR 20/12 A2973 RMK AO2 SLP063 T02000122 $


Wind From 300°
Speed 05 kn.

 
 
jpsmedia.com for Web Design SOUNDCLOUD worldairports.se 2018   terms of use